Time,TemperatureF,DewpointF,PressureIn,WindDirection,WindDirectionDegrees,WindSpeedMPH,WindSpeedGustMPH,Humidity,HourlyPrecipIn,Conditions,Clouds,dailyrainin,SoftwareType,DateUTC
2013-03-11 00:03:00,32.3,29.4,30.29,SW,221,1.0,5.0,89,0.00,CLR,,0.00,WeatherDisplay:10.37,2013-03-11 04:03:00,
2013-03-11 00:13:00,32.2,29.6,30.29,West,266,1.0,3.0,90,0.00,CLR,,0.00,WeatherDisplay:10.37,2013-03-11 04:13:00,
2013-03-11 00:23:00,32.2,29.6,30.30,WSW,240,2.0,6.0,90,0.00,CLR,,0.00,WeatherDisplay:10.37,2013-03-11 04:23:00,
2013-03-11 00:33:00,32.0,29.7,30.30,WSW,244,1.0,6.0,91,0.00,CLR,,0.00,WeatherDisplay:10.37,2013-03-11 04:33:00,
2013-03-11 00:43:00,32.2,30.1,30.30,West,278,2.0,4.0,92,0.00,CLR,,0.00,WeatherDisplay:10.37,2013-03-11 04:43:00,
2013-03-11 00:53:00,32.2,30.1,30.30,WSW,257,1.0,5.0,92,0.00,CLR,,0.00,WeatherDisplay:10.37,2013-03-11 04:53:00,
2013-03-11 01:03:00,32.2,30.1,30.30,WSW,249,2.0,7.0,92,0.00,SCT,,0.00,WeatherDisplay:10.37,2013-03-11 05:03:00,
2013-03-11 01:13:00,32.3,30.2,30.30,West,263,2.0,10.0,92,0.00,SCT,,0.00,WeatherDisplay:10.37,2013-03-11 05:13:00,
2013-03-11 01:23:00,32.3,30.2,30.30,West,277,1.0,5.0,92,0.00,BKN,,0.00,WeatherDisplay:10.37,2013-03-11 05:23:00,
2013-03-11 01:33:00,32.3,30.2,30.30,West,278,2.0,5.0,92,0.00,BKN,,0.00,WeatherDisplay:10.37,2013-03-11 05:33:00,
2013-03-11 01:43:00,32.3,30.2,30.31,West,264,1.0,6.0,92,0.00,BKN,,0.00,WeatherDisplay:10.37,2013-03-11 05:43:00,
2013-03-11 01:53:00,32.3,30.2,30.30,WSW,242,1.0,5.0,92,0.00,BKN,,0.00,WeatherDisplay:10.37,2013-03-11 05:53:00,
2013-03-11 02:03:00,32.3,30.2,30.30,SW,223,1.0,4.0,92,0.00,BKN,,0.00,WeatherDisplay:10.37,2013-03-11 06:03:00,
2013-03-11 02:13:00,32.3,30.2,30.30,SW,226,2.0,5.0,92,0.00,OVC,,0.00,WeatherDisplay:10.37,2013-03-11 06:13:00,
2013-03-11 02:23:00,32.3,30.2,30.31,WSW,252,1.0,7.0,92,0.00,OVC,,0.00,WeatherDisplay:10.37,2013-03-11 06:23:00,
2013-03-11 02:33:00,32.3,30.2,30.31,SW,235,1.0,4.0,92,0.00,OVC,,0.00,WeatherDisplay:10.37,2013-03-11 06:33:00,
2013-03-11 02:43:00,32.3,30.2,30.31,WSW,248,1.0,5.0,92,0.00,OVC,,0.00,WeatherDisplay:10.37,2013-03-11 06:43:00,
2013-03-11 02:53:00,32.3,30.2,30.28,SW,214,1.0,7.0,92,0.00,OVC,,0.00,WeatherDisplay:10.37,2013-03-11 06:53:00,
2013-03-11 03:03:00,32.2,30.4,30.28,SW,218,1.0,5.0,93,0.00,OVC,,0.00,WeatherDisplay:10.37,2013-03-11 07:03:00,
2013-03-11 03:13:00,32.2,30.4,30.27,SSW,208,3.0,6.0,93,0.00,OVC,,0.00,WeatherDisplay:10.37,2013-03-11 07:13:00,
2013-03-11 03:23:00,32.2,30.4,30.26,SSW,198,1.0,3.0,93,0.00,OVC,,0.00,WeatherDisplay:10.37,2013-03-11 07:23:00,
2013-03-11 03:33:00,32.2,30.4,30.26,West,260,1.0,4.0,93,0.00,OVC,,0.00,WeatherDisplay:10.37,2013-03-11 07:33:00,
2013-03-11 03:43:00,32.2,30.4,30.27,West,261,1.0,4.0,93,0.00,OVC,,0.00,WeatherDisplay:10.37,2013-03-11 07:43:00,
2013-03-11 03:53:00,32.2,30.4,30.28,West,263,1.0,4.0,93,0.00,OVC,,0.00,WeatherDisplay:10.37,2013-03-11 07:53:00,
2013-03-11 04:03:00,32.2,30.4,30.28,West,265,2.0,8.0,93,0.00,OVC,,0.00,WeatherDisplay:10.37,2013-03-11 08:03:00,
2013-03-11 04:13:00,32.2,30.4,30.27,West,266,2.0,6.0,93,0.00,OVC,,0.00,WeatherDisplay:10.37,2013-03-11 08:13:00,
2013-03-11 04:23:00,32.2,30.4,30.26,SW,234,1.0,4.0,93,0.00,OVC,,0.00,WeatherDisplay:10.37,2013-03-11 08:23:00,
2013-03-11 04:33:00,32.0,30.2,30.26,WSW,258,1.0,3.0,93,0.00,OVC,,0.00,WeatherDisplay:10.37,2013-03-11 08:33:00,
2013-03-11 04:43:00,32.0,29.9,30.26,WSW,256,1.0,3.0,92,0.00,OVC,,0.00,WeatherDisplay:10.37,2013-03-11 08:43:00,
2013-03-11 04:53:00,31.9,29.8,30.26,West,265,0.0,4.0,92,0.00,OVC,,0.00,WeatherDisplay:10.37,2013-03-11 08:53:00,
2013-03-11 05:03:00,31.9,29.8,30.26,SW,222,1.0,4.0,92,0.00,OVC,,0.00,WeatherDisplay:10.37,2013-03-11 09:03:00,
2013-03-11 05:13:00,31.9,29.8,30.25,SSW,211,1.0,6.0,92,0.00,OVC,,0.00,WeatherDisplay:10.37,2013-03-11 09:13:00,
2013-03-11 05:23:00,31.9,29.8,30.24,SW,222,2.0,7.0,92,0.00,OVC,,0.00,WeatherDisplay:10.37,2013-03-11 09:23:00,
2013-03-11 05:33:00,31.9,30.1,30.24,SW,227,1.0,6.0,93,0.00,OVC,,0.00,WeatherDisplay:10.37,2013-03-11 09:33:00,
2013-03-11 05:43:00,31.9,30.1,30.25,SW,235,1.0,4.0,93,0.00,OVC,,0.00,WeatherDisplay:10.37,2013-03-11 09:43:00,
2013-03-11 05:53:00,31.9,30.1,30.25,SW,234,1.0,6.0,93,0.00,OVC,,0.00,WeatherDisplay:10.37,2013-03-11 09:53:00,
2013-03-11 06:03:00,31.9,30.1,30.25,WSW,256,2.0,4.0,93,0.00,OVC,,0.00,WeatherDisplay:10.37,2013-03-11 10:03:00,
2013-03-11 06:13:00,32.0,29.9,30.26,West,275,1.0,5.0,92,0.00,OVC,,0.00,WeatherDisplay:10.37,2013-03-11 10:13:00,
2013-03-11 06:23:00,32.0,29.9,30.26,West,280,2.0,6.0,92,0.00,OVC,,0.00,WeatherDisplay:10.37,2013-03-11 10:23:00,
2013-03-11 06:33:00,32.0,29.9,30.26,WSW,243,1.0,6.0,92,0.00,OVC,,0.00,WeatherDisplay:10.37,2013-03-11 10:33:00,
2013-03-11 06:43:00,31.9,29.8,30.25,WSW,237,1.0,6.0,92,0.00,OVC,,0.00,WeatherDisplay:10.37,2013-03-11 10:43:00,
2013-03-11 06:53:00,31.9,29.8,30.25,WSW,251,1.0,6.0,92,0.00,OVC,,0.00,WeatherDisplay:10.37,2013-03-11 10:53:00,
2013-03-11 07:13:00,31.9,29.8,30.25,SW,233,1.0,3.0,92,0.00,OVC,,0.00,WeatherDisplay:10.37,2013-03-11 11:13:00,
2013-03-11 07:23:00,32.0,29.9,30.25,WSW,246,2.0,6.0,92,0.00,OVC,,0.00,WeatherDisplay:10.37,2013-03-11 11:23:00,
2013-03-11 07:33:00,32.2,30.1,30.25,SW,219,2.0,6.0,92,0.00,OVC,,0.00,WeatherDisplay:10.37,2013-03-11 11:33:00,
2013-03-11 07:43:00,32.3,30.2,30.24,WSW,253,1.0,5.0,92,0.00,OVC,,0.00,WeatherDisplay:10.37,2013-03-11 11:43:00,
2013-03-11 07:53:00,32.5,30.4,30.25,WSW,241,2.0,7.0,92,0.00,OVC,,0.00,WeatherDisplay:10.37,2013-03-11 11:53:00,
2013-03-11 08:03:00,32.7,30.6,30.25,West,270,2.0,5.0,92,0.00,OVC,,0.00,WeatherDisplay:10.37,2013-03-11 12:03:00,
2013-03-11 08:13:00,33.1,31.0,30.25,West,265,1.0,4.0,92,0.00,CLR,,0.00,WeatherDisplay:10.37,2013-03-11 12:13:00,
2013-03-11 08:23:00,33.4,31.4,30.25,WSW,245,2.0,6.0,92,0.00,CLR,,0.00,WeatherDisplay:10.37,2013-03-11 12:23:00,
2013-03-11 08:33:00,33.8,31.5,30.25,West,261,1.0,5.0,91,0.00,OVC,,0.00,WeatherDisplay:10.37,2013-03-11 12:33:00,
2013-03-11 08:43:00,34.1,31.7,30.25,West,265,1.0,6.0,91,0.00,OVC,,0.00,WeatherDisplay:10.37,2013-03-11 12:43:00,
2013-03-11 08:53:00,34.5,31.9,30.25,WSW,250,1.0,5.0,90,0.00,OVC,,0.00,WeatherDisplay:10.37,2013-03-11 12:53:00,
2013-03-11 09:03:00,34.8,32.2,30.25,WSW,251,1.0,6.0,90,0.00,OVC,,0.00,WeatherDisplay:10.37,2013-03-11 13:03:00,
2013-03-11 09:13:00,35.3,32.7,30.24,SW,234,2.0,12.0,90,0.00,OVC,,0.00,WeatherDisplay:10.37,2013-03-11 13:13:00,
2013-03-11 09:23:00,35.8,32.9,30.24,WSW,246,2.0,6.0,89,0.00,OVC,,0.00,WeatherDisplay:10.37,2013-03-11 13:23:00,
2013-03-11 09:33:00,36.1,32.6,30.24,WSW,249,1.0,9.0,87,0.00,OVC,,0.00,WeatherDisplay:10.37,2013-03-11 13:33:00,
2013-03-11 09:43:00,36.8,33.0,30.25,WSW,245,1.0,12.0,86,0.00,OVC,,0.00,WeatherDisplay:10.37,2013-03-11 13:43:00,
2013-03-11 09:53:00,37.1,33.0,30.24,WSW,256,2.0,7.0,85,0.00,OVC,,0.00,WeatherDisplay:10.37,2013-03-11 13:53:00,
2013-03-11 10:03:00,37.3,33.2,30.24,WSW,246,2.0,12.0,85,0.00,OVC,,0.00,WeatherDisplay:10.37,2013-03-11 14:03:00,
2013-03-11 10:13:00,38.1,33.4,30.24,West,263,2.0,10.0,83,0.00,BKN,,0.00,WeatherDisplay:10.37,2013-03-11 14:13:00,
2013-03-11 10:23:00,39.6,33.7,30.23,WSW,239,2.0,6.0,79,0.00,BKN,,0.00,WeatherDisplay:10.37,2013-03-11 14:23:00,
2013-03-11 10:33:00,40.6,33.6,30.23,WSW,247,3.0,7.0,76,0.00,FEW,,0.00,WeatherDisplay:10.37,2013-03-11 14:33:00,
2013-03-11 10:43:00,40.4,33.4,30.24,WSW,248,3.0,7.0,76,0.00,FEW,,0.00,WeatherDisplay:10.37,2013-03-11 14:43:00,
2013-03-11 10:53:00,40.0,33.4,30.24,WSW,255,2.0,9.0,77,0.00,FEW,,0.00,WeatherDisplay:10.37,2013-03-11 14:53:00,
2013-03-11 11:03:00,40.6,33.3,30.24,WSW,251,3.0,6.0,75,0.00,FEW,,0.00,WeatherDisplay:10.37,2013-03-11 15:03:00,
2013-03-11 11:13:00,41.7,33.7,30.24,WSW,257,5.0,10.0,73,0.00,CLR,,0.00,WeatherDisplay:10.37,2013-03-11 15:13:00,
2013-03-11 11:23:00,42.4,33.3,30.24,WSW,255,2.0,7.0,70,0.00,CLR,,0.00,WeatherDisplay:10.37,2013-03-11 15:23:00,
2013-03-11 11:33:00,42.3,33.6,30.24,West,264,2.0,9.0,71,0.00,CLR,,0.00,WeatherDisplay:10.37,2013-03-11 15:33:00,
2013-03-11 11:43:00,43.3,33.8,30.24,WSW,250,1.0,9.0,69,0.00,CLR,,0.00,WeatherDisplay:10.37,2013-03-11 15:43:00,
2013-03-11 11:53:00,43.7,33.8,30.24,SW,221,2.0,9.0,68,0.00,CLR,,0.00,WeatherDisplay:10.37,2013-03-11 15:53:00,
2013-03-11 12:03:00,44.3,34.0,30.24,SW,230,2.0,8.0,67,0.00,CLR,,0.00,WeatherDisplay:10.37,2013-03-11 16:03:00,
2013-03-11 12:13:00,44.5,34.2,30.23,SW,217,3.0,9.0,67,0.00,CLR,,0.00,WeatherDisplay:10.37,2013-03-11 16:13:00,
2013-03-11 12:23:00,45.5,34.4,30.23,WSW,240,5.0,9.0,65,0.00,CLR,,0.00,WeatherDisplay:10.37,2013-03-11 16:23:00,
2013-03-11 12:33:00,46.1,34.2,30.23,WSW,241,2.0,10.0,63,0.00,CLR,,0.00,WeatherDisplay:10.37,2013-03-11 16:33:00,
2013-03-11 12:43:00,45.3,34.2,30.23,SW,225,3.0,9.0,65,0.00,CLR,,0.00,WeatherDisplay:10.37,2013-03-11 16:43:00,
2013-03-11 12:53:00,45.9,34.4,30.23,SW,218,1.0,5.0,64,0.00,CLR,,0.00,WeatherDisplay:10.37,2013-03-11 16:53:00,
2013-03-11 13:03:00,46.7,34.4,30.23,SW,235,3.0,10.0,62,0.00,CLR,,0.00,WeatherDisplay:10.37,2013-03-11 17:03:00,
2013-03-11 13:13:00,47.2,34.5,30.22,SW,221,2.0,9.0,61,0.00,CLR,,0.00,WeatherDisplay:10.37,2013-03-11 17:13:00,
2013-03-11 13:23:00,46.4,34.1,30.21,WSW,244,1.0,7.0,62,0.00,CLR,,0.00,WeatherDisplay:10.37,2013-03-11 17:23:00,
2013-03-11 13:33:00,46.4,34.5,30.21,SW,217,2.0,4.0,63,0.00,CLR,,0.00,WeatherDisplay:10.37,2013-03-11 17:33:00,
2013-03-11 13:43:00,46.7,34.8,30.20,SSW,209,3.0,10.0,63,0.00,CLR,,0.00,WeatherDisplay:10.37,2013-03-11 17:43:00,
2013-03-11 13:53:00,47.1,34.7,30.20,SSW,192,3.0,13.0,62,0.00,CLR,,0.00,WeatherDisplay:10.37,2013-03-11 17:53:00,
2013-03-11 14:03:00,47.1,34.8,30.20,SW,229,2.0,12.0,62,0.00,CLR,,0.00,WeatherDisplay:10.37,2013-03-11 18:03:00,
2013-03-11 14:13:00,47.6,35.3,30.20,SSW,205,1.0,6.0,62,0.00,CLR,,0.00,WeatherDisplay:10.37,2013-03-11 18:13:00,
2013-03-11 14:23:00,48.6,35.3,30.19,SW,216,2.0,7.0,60,0.00,CLR,,0.00,WeatherDisplay:10.37,2013-03-11 18:23:00,
2013-03-11 14:33:00,49.3,36.0,30.19,SSW,197,3.0,6.0,60,0.00,CLR,,0.00,WeatherDisplay:10.37,2013-03-11 18:33:00,
2013-03-11 14:43:00,49.8,36.0,30.18,SW,221,5.0,9.0,59,0.00,CLR,,0.00,WeatherDisplay:10.37,2013-03-11 18:43:00,
2013-03-11 14:53:00,49.9,35.3,30.18,SSW,211,2.0,12.0,57,0.00,CLR,,0.00,WeatherDisplay:10.37,2013-03-11 18:53:00,
2013-03-11 15:03:00,50.7,35.1,30.18,SW,236,2.0,13.0,55,0.00,CLR,,0.00,WeatherDisplay:10.37,2013-03-11 19:03:00,
2013-03-11 15:13:00,51.7,35.1,30.17,SW,215,3.0,13.0,53,0.00,CLR,,0.00,WeatherDisplay:10.37,2013-03-11 19:13:00,
2013-03-11 15:23:00,51.6,35.9,30.17,WSW,240,2.0,10.0,55,0.00,CLR,,0.00,WeatherDisplay:10.37,2013-03-11 19:23:00,
2013-03-11 15:33:00,50.8,35.2,30.17,WSW,238,1.0,4.0,55,0.00,CLR,,0.00,WeatherDisplay:10.37,2013-03-11 19:33:00,
2013-03-11 15:43:00,51.1,35.9,30.17,SSW,209,2.0,9.0,56,0.00,CLR,,0.00,WeatherDisplay:10.37,2013-03-11 19:43:00,
2013-03-11 15:53:00,50.8,36.1,30.17,SSW,209,3.0,7.0,57,0.00,CLR,,0.00,WeatherDisplay:10.37,2013-03-11 19:53:00,
2013-03-11 16:03:00,51.1,35.9,30.17,SW,226,3.0,10.0,56,0.00,CLR,,0.00,WeatherDisplay:10.37,2013-03-11 20:03:00,
2013-03-11 16:13:00,50.4,35.7,30.16,SW,217,2.0,12.0,57,0.00,BKN,,0.00,WeatherDisplay:10.37,2013-03-11 20:13:00,
2013-03-11 16:23:00,49.8,35.6,30.16,SSW,197,2.0,12.0,58,0.00,BKN,,0.00,WeatherDisplay:10.37,2013-03-11 20:23:00,
2013-03-11 16:33:00,49.3,36.0,30.16,SW,230,2.0,5.0,60,0.00,BKN,,0.00,WeatherDisplay:10.37,2013-03-11 20:33:00,
2013-03-11 16:43:00,48.9,35.6,30.16,SW,218,2.0,10.0,60,0.00,BKN,,0.00,WeatherDisplay:10.37,2013-03-11 20:43:00,
2013-03-11 16:53:00,48.6,35.3,30.15,SSW,207,2.0,6.0,60,0.00,BKN,,0.00,WeatherDisplay:10.37,2013-03-11 20:53:00,
2013-03-11 17:03:00,48.4,35.1,30.15,SSW,207,1.0,12.0,60,0.00,BKN,,0.00,WeatherDisplay:10.37,2013-03-11 21:03:00,
2013-03-11 17:13:00,48.2,35.0,30.15,SSW,206,2.0,10.0,60,0.00,BKN,,0.00,WeatherDisplay:10.37,2013-03-11 21:13:00,
2013-03-11 17:23:00,47.7,34.5,30.15,SW,232,3.0,9.0,60,0.00,FEW,,0.00,WeatherDisplay:10.37,2013-03-11 21:23:00,
2013-03-11 17:33:00,47.1,34.3,30.15,SW,218,2.0,5.0,61,0.00,FEW,,0.00,WeatherDisplay:10.37,2013-03-11 21:33:00,
2013-03-11 17:43:00,46.5,34.2,30.15,SSW,206,1.0,5.0,62,0.00,FEW,,0.00,WeatherDisplay:10.37,2013-03-11 21:43:00,
2013-03-11 17:53:00,46.1,34.2,30.15,SW,219,2.0,9.0,63,0.00,FEW,,0.00,WeatherDisplay:10.37,2013-03-11 21:53:00,
2013-03-11 18:03:00,45.8,34.3,30.15,SW,220,5.0,10.0,64,0.00,CLR,,0.00,WeatherDisplay:10.37,2013-03-11 22:03:00,
2013-03-11 18:13:00,45.2,34.5,30.15,SW,215,1.0,7.0,66,0.00,CLR,,0.00,WeatherDisplay:10.37,2013-03-11 22:13:00,
2013-03-11 18:23:00,44.6,34.7,30.15,SSW,209,1.0,8.0,68,0.00,CLR,,0.00,WeatherDisplay:10.37,2013-03-11 22:23:00,
2013-03-11 18:33:00,44.2,35.7,30.15,SW,233,3.0,18.0,72,0.00,CLR,,0.00,WeatherDisplay:10.37,2013-03-11 22:33:00,
2013-03-11 18:43:00,43.9,36.1,30.15,SSW,200,3.0,14.0,74,0.00,CLR,,0.00,WeatherDisplay:10.37,2013-03-11 22:43:00,
2013-03-11 18:53:00,43.3,36.2,30.15,SSW,212,3.0,12.0,76,0.00,CLR,,0.00,WeatherDisplay:10.37,2013-03-11 22:53:00,
2013-03-11 19:03:00,42.8,36.4,30.15,SW,217,2.0,9.0,78,0.00,CLR,,0.00,WeatherDisplay:10.37,2013-03-11 23:03:00,
2013-03-11 19:13:00,42.6,36.9,30.15,SW,222,2.0,10.0,80,0.00,CLR,,0.00,WeatherDisplay:10.37,2013-03-11 23:13:00,
2013-03-11 19:23:00,42.3,36.9,30.15,SSW,195,3.0,12.0,81,0.00,CLR,,0.00,WeatherDisplay:10.37,2013-03-11 23:23:00,
2013-03-11 19:33:00,42.0,37.2,30.15,SW,225,2.0,10.0,83,0.00,CLR,,0.00,WeatherDisplay:10.37,2013-03-11 23:33:00,
2013-03-11 19:43:00,41.7,37.2,30.15,SW,227,3.0,7.0,84,0.00,CLR,,0.00,WeatherDisplay:10.37,2013-03-11 23:43:00,
2013-03-11 19:53:00,41.6,37.4,30.15,SSW,207,0.0,10.0,85,0.00,CLR,,0.00,WeatherDisplay:10.37,2013-03-11 23:53:00,
2013-03-11 20:03:00,41.6,37.4,30.15,SSW,213,0.0,12.0,85,0.00,CLR,,0.00,WeatherDisplay:10.37,2013-03-12 00:03:00,
2013-03-11 20:13:00,41.4,37.2,30.14,SW,226,2.0,10.0,85,0.00,FEW,,0.00,WeatherDisplay:10.37,2013-03-12 00:13:00,
2013-03-11 20:23:00,41.0,37.1,30.15,SSW,206,0.0,4.0,86,0.00,FEW,,0.00,WeatherDisplay:10.37,2013-03-12 00:23:00,
2013-03-11 20:33:00,40.7,37.1,30.15,SW,225,0.0,6.0,87,0.00,BKN,,0.00,WeatherDisplay:10.37,2013-03-12 00:33:00,
2013-03-11 20:43:00,40.4,37.1,30.15,SW,234,0.0,4.0,88,0.00,BKN,,0.00,WeatherDisplay:10.37,2013-03-12 00:43:00,
2013-03-11 20:53:00,40.4,37.1,30.15,SSW,212,0.0,5.0,88,0.00,BKN,,0.00,WeatherDisplay:10.37,2013-03-12 00:53:00,
2013-03-11 21:03:00,40.1,37.1,30.15,SSW,213,0.0,4.0,89,0.00,BKN,,0.00,WeatherDisplay:10.37,2013-03-12 01:03:00,
2013-03-11 21:13:00,40.0,37.3,30.16,SSW,210,1.0,4.0,90,0.00,BKN,,0.00,WeatherDisplay:10.37,2013-03-12 01:13:00,
2013-03-11 21:23:00,40.0,37.3,30.15,SSE,166,1.0,3.0,90,0.00,BKN,,0.00,WeatherDisplay:10.37,2013-03-12 01:23:00,
2013-03-11 21:33:00,39.9,37.2,30.15,SSW,195,0.0,2.0,90,0.00,BKN,,0.00,WeatherDisplay:10.37,2013-03-12 01:33:00,
2013-03-11 21:43:00,39.7,37.3,30.15,SSW,204,1.0,3.0,91,0.00,BKN,,0.00,WeatherDisplay:10.37,2013-03-12 01:43:00,
2013-03-11 21:53:00,39.4,37.3,30.15,SW,219,0.0,3.0,92,0.00,BKN,,0.00,WeatherDisplay:10.37,2013-03-12 01:53:00,
2013-03-11 22:03:00,39.3,37.2,30.15,WSW,254,0.0,2.0,92,0.00,BKN,,0.00,WeatherDisplay:10.37,2013-03-12 02:03:00,
2013-03-11 22:13:00,39.1,37.2,30.15,SW,222,0.0,2.0,93,0.00,BKN,,0.00,WeatherDisplay:10.37,2013-03-12 02:13:00,
2013-03-11 22:23:00,39.1,37.5,30.14,SW,231,1.0,2.0,94,0.00,BKN,,0.00,WeatherDisplay:10.37,2013-03-12 02:23:00,
2013-03-11 22:33:00,39.3,37.7,30.14,SW,226,1.0,2.0,94,0.00,BKN,,0.00,WeatherDisplay:10.37,2013-03-12 02:33:00,
2013-03-11 22:43:00,39.1,37.5,30.14,West,262,1.0,2.0,94,0.00,BKN,,0.00,WeatherDisplay:10.37,2013-03-12 02:43:00,
2013-03-11 22:53:00,39.0,37.4,30.14,West,263,1.0,2.0,94,0.00,OVC,,0.00,WeatherDisplay:10.37,2013-03-12 02:53:00,
2013-03-11 23:03:00,38.9,37.3,30.14,WSW,237,1.0,3.0,94,0.00,OVC,,0.00,WeatherDisplay:10.37,2013-03-12 03:03:00,
2013-03-11 23:13:00,38.9,37.6,30.14,WSW,244,1.0,3.0,95,0.00,OVC,,0.00,WeatherDisplay:10.37,2013-03-12 03:13:00,
2013-03-11 23:23:00,39.3,38.3,30.14,WSW,247,1.0,2.0,96,0.00,OVC,,0.00,WeatherDisplay:10.37,2013-03-12 03:23:00,
2013-03-11 23:33:00,39.3,38.3,30.14,West,262,0.0,3.0,96,0.00,OVC,,0.00,WeatherDisplay:10.37,2013-03-12 03:33:00,
2013-03-11 23:43:00,39.1,38.1,30.14,WSW,246,1.0,5.0,96,0.00,OVC,,0.00,WeatherDisplay:10.37,2013-03-12 03:43:00,
2013-03-11 23:53:00,39.1,38.1,30.14,WSW,241,1.0,4.0,96,0.00,OVC,,0.00,WeatherDisplay:10.37,2013-03-12 03:53:00,